Time;durP1;ratioP1;P1;durP2;ratioP2;P2;SDS_P1;SDS_P2;PMS_P1;PMS_P2;Temp;Humidity;BMP_temperature;BMP_pressure;BME280_temperature;BME280_humidity;BME280_pressure;Samples;Min_cycle;Max_cycle;Signal;HPM_P1;HPM_P2
2021/07/18 00:01:20;;;;;;;;;;;;;;;;;;5067933;28;21379;-68
2021/07/18 00:03:47;;;;;;;;;;;;;;;;;;5061363;28;19925;-68
2021/07/18 00:06:14;;;;;;;;;;;;;;;;;;5066931;28;19929;-68
2021/07/18 00:08:41;;;;;;;;;;;;;;;;;;5068534;28;19925;-68
2021/07/18 00:11:08;;;;;;;;;;;;;;;;;;5068552;28;20303;-69
2021/07/18 00:13:35;;;;;;;;;;;;;;;;;;5062448;28;19935;-68
2021/07/18 00:16:02;;;;;;;;;;;;;;;;;;5064157;28;19931;-68
2021/07/18 00:18:28;;;;;;;;;;;;;;;;;;5063807;28;19931;-68
2021/07/18 00:20:55;;;;;;;;;;;;;;;;;;5061002;28;19924;-68
2021/07/18 00:23:23;;;;;;;;;;;;;;;;;;5063594;28;20015;-68
2021/07/18 00:25:50;;;;;;;;;;;;;;;;;;5065112;28;19928;-68
2021/07/18 00:28:17;;;;;;;;;;;;;;;;;;5062587;28;19931;-68
2021/07/18 00:30:44;;;;;;;;;;;;;;;;;;5069300;28;19932;-68
2021/07/18 00:33:10;;;;;;;;;;;;;;;;;;5058522;28;19935;-68
2021/07/18 00:35:37;;;;;;;;;;;;;;;;;;5067299;28;19940;-68
2021/07/18 00:38:04;;;;;;;;;;;;;;;;;;5067308;28;20319;-68
2021/07/18 00:40:31;;;;;;;;;;;;;;;;;;5067341;28;19931;-68
2021/07/18 00:42:58;;;;;;;;;;;;;;;;;;5062779;28;19925;-68
2021/07/18 00:45:25;;;;;;;;;;;;;;;;;;5061412;28;19950;-69
2021/07/18 00:47:52;;;;;;;;;;;;;;;;;;5060314;28;19931;-68
2021/07/18 00:50:19;;;;;;;;;;;;;;;;;;5065033;28;20384;-68
2021/07/18 00:52:46;;;;;;;;;;;;;;;;;;5067799;28;19930;-68
2021/07/18 00:55:13;;;;;;;;;;;;;;;;;;5066196;28;19940;-68
2021/07/18 00:57:40;;;;;;;;;;;;;;;;;;5065154;28;19925;-68
2021/07/18 01:00:07;;;;;;;;;;;;;;;;;;5064677;28;20405;-68
2021/07/18 01:02:34;;;;;;;;;;;;;;;;;;5064648;28;20028;-68
2021/07/18 01:05:01;;;;;;;;;;;;;;;;;;5063162;28;19925;-68
2021/07/18 01:07:28;;;;;;;;;;;;;;;;;;5063935;28;19932;-68
2021/07/18 01:09:55;;;;;;;;;;;;;;;;;;5061658;28;19929;-68
2021/07/18 01:12:22;;;;;;;;;;;;;;;;;;5061857;28;19925;-68
2021/07/18 01:14:49;;;;;;;;;;;;;;;;;;5059807;28;20024;-68
2021/07/18 01:17:16;;;;;;;;;;;;;;;;;;5063296;28;21515;-68
2021/07/18 01:19:43;;;;;;;;;;;;;;;;;;5062410;28;19931;-68
2021/07/18 01:22:10;;;;;;;;;;;;;;;;;;5065153;28;19925;-68
2021/07/18 01:24:37;;;;;;;;;;;;;;;;;;5064987;28;19925;-68
2021/07/18 01:27:06;;;;;;;;;;;;;;;;;;5069760;28;20289;-68
2021/07/18 01:29:33;;;;;;;;;;;;;;;;;;5068127;28;19932;-68
2021/07/18 01:32:00;;;;;;;;;;;;;;;;;;5060426;28;19939;-67
2021/07/18 01:34:27;;;;;;;;;;;;;;;;;;5066094;28;19943;-68
2021/07/18 01:36:54;;;;;;;;;;;;;;;;;;5067045;28;20011;-67
2021/07/18 01:39:21;;;;;;;;;;;;;;;;;;5069478;28;19928;-67
2021/07/18 01:41:48;;;;;;;;;;;;;;;;;;5064808;28;19925;-68
2021/07/18 01:44:15;;;;;;;;;;;;;;;;;;5061779;28;19928;-67
2021/07/18 01:46:42;;;;;;;;;;;;;;;;;;5065766;28;19931;-68
2021/07/18 01:49:09;;;;;;;;;;;;;;;;;;5059990;28;19935;-68
2021/07/18 01:51:36;;;;;;;;;;;;;;;;;;5059551;28;19924;-67
2021/07/18 01:54:03;;;;;;;;;;;;;;;;;;5068451;28;20400;-67
2021/07/18 01:56:30;;;;;;;;;;;;;;;;;;5067763;28;19925;-68
2021/07/18 01:58:57;;;;;;;;;;;;;;;;;;5070409;28;19931;-68
2021/07/18 02:01:24;;;;;;;;;;;;;;;;;;5070336;28;20296;-66
2021/07/18 02:03:51;;;;;;;;;;;;;;;;;;5065262;28;19925;-66
2021/07/18 02:06:20;;;;;;;;;;;;;;;;;;5069612;28;19924;-68
2021/07/18 02:08:47;;;;;;;;;;;;;;;;;;5059106;28;19929;-66
2021/07/18 02:11:14;;;;;;;;;;;;;;;;;;5062859;28;19936;-67
2021/07/18 02:13:41;;;;;;;;;;;;;;;;;;5059134;28;19978;-67
2021/07/18 02:16:08;;;;;;;;;;;;;;;;;;5063749;28;19924;-68
2021/07/18 02:18:35;;;;;;;;;;;;;;;;;;5058565;28;20381;-67
2021/07/18 02:21:02;;;;;;;;;;;;;;;;;;5062994;28;19947;-67
2021/07/18 02:23:29;;;;;;;;;;;;;;;;;;5065881;28;19931;-67
2021/07/18 02:25:56;;;;;;;;;;;;;;;;;;5065781;28;19932;-67
2021/07/18 02:28:23;;;;;;;;;;;;;;;;;;5070830;28;19924;-67
2021/07/18 02:30:50;;;;;;;;;;;;;;;;;;5065021;28;19925;-67
2021/07/18 02:33:17;;;;;;;;;;;;;;;;;;5065300;28;20308;-67
2021/07/18 02:35:44;;;;;;;;;;;;;;;;;;5058420;28;19925;-67
2021/07/18 02:38:11;;;;;;;;;;;;;;;;;;5065260;28;20019;-67
2021/07/18 02:40:38;;;;;;;;;;;;;;;;;;5055715;28;20277;-66
2021/07/18 02:43:05;;;;;;;;;;;;;;;;;;5061745;28;19933;-67
2021/07/18 02:45:32;;;;;;;;;;;;;;;;;;5058161;28;19947;-67
2021/07/18 02:47:59;;;;;;;;;;;;;;;;;;5069365;28;19925;-67
2021/07/18 02:50:26;;;;;;;;;;;;;;;;;;5071237;28;20380;-66
2021/07/18 02:52:53;;;;;;;;;;;;;;;;;;5067034;28;19932;-67
2021/07/18 02:55:20;;;;;;;;;;;;;;;;;;5068716;28;19932;-67
2021/07/18 02:57:47;;;;;;;;;;;;;;;;;;5069729;28;19928;-67
2021/07/18 03:00:14;;;;;;;;;;;;;;;;;;5069459;28;19935;-67
2021/07/18 03:02:41;;;;;;;;;;;;;;;;;;5063336;28;19925;-67
2021/07/18 03:05:10;;;;;;;;;;;;;;;;;;5064212;28;19929;-67
2021/07/18 03:07:37;;;;;;;;;;;;;;;;;;5064925;28;19931;-67
2021/07/18 03:10:04;;;;;;;;;;;;;;;;;;5065972;28;19924;-68
2021/07/18 03:12:31;;;;;;;;;;;;;;;;;;5068994;28;19925;-68
2021/07/18 03:14:58;;;;;;;;;;;;;;;;;;5065620;28;20372;-68
2021/07/18 03:17:25;;;;;;;;;;;;;;;;;;5061010;28;20263;-68
2021/07/18 03:19:52;;;;;;;;;;;;;;;;;;5059107;28;19924;-68
2021/07/18 03:22:19;;;;;;;;;;;;;;;;;;5069171;28;20303;-68
2021/07/18 03:24:46;;;;;;;;;;;;;;;;;;5068787;28;19930;-68
2021/07/18 03:27:13;;;;;;;;;;;;;;;;;;5053783;28;19931;-68
2021/07/18 03:29:40;;;;;;;;;;;;;;;;;;5062093;28;19932;-68
2021/07/18 03:32:07;;;;;;;;;;;;;;;;;;5061675;28;19935;-68
2021/07/18 03:34:34;;;;;;;;;;;;;;;;;;5068227;28;19935;-68
2021/07/18 03:37:01;;;;;;;;;;;;;;;;;;5078387;22;19912;-72
2021/07/18 03:39:28;;;;;;;;;;;;;;;;;;5034688;28;20112;-72
2021/07/18 03:41:55;;;;;;;;;;;;;;;;;;5030591;28;20303;-72
2021/07/18 03:44:22;;;;;;;;;;;;;;;;;;5033610;28;19925;-72
2021/07/18 03:46:49;;;;;;;;;;;;;;;;;;5035834;28;19931;-72
2021/07/18 03:49:16;;;;;;;;;;;;;;;;;;5036091;28;19932;-73
2021/07/18 03:51:43;;;;;;;;;;;;;;;;;;5031374;28;19925;-72
2021/07/18 03:54:10;;;;;;;;;;;;;;;;;;5032752;28;19929;-71
2021/07/18 03:56:37;;;;;;;;;;;;;;;;;;5031189;28;19925;-72
2021/07/18 03:59:04;;;;;;;;;;;;;;;;;;5036925;28;19979;-72
2021/07/18 04:01:31;;;;;;;;;;;;;;;;;;5030292;28;19933;-72
2021/07/18 04:03:58;;;;;;;;;;;;;;;;;;5032667;28;19934;-72
2021/07/18 04:06:25;;;;;;;;;;;;;;;;;;5034646;28;19956;-71
2021/07/18 04:08:52;;;;;;;;;;;;;;;;;;5035866;28;19929;-72
2021/07/18 04:11:19;;;;;;;;;;;;;;;;;;5035208;28;19932;-71
2021/07/18 04:13:46;;;;;;;;;;;;;;;;;;5031457;28;20392;-71
2021/07/18 04:16:13;;;;;;;;;;;;;;;;;;5040715;28;19925;-72
2021/07/18 04:18:40;;;;;;;;;;;;;;;;;;5035632;28;20408;-71
2021/07/18 04:21:07;;;;;;;;;;;;;;;;;;5036535;28;20304;-73
2021/07/18 04:23:34;;;;;;;;;;;;;;;;;;5031999;28;20011;-72
2021/07/18 04:26:01;;;;;;;;;;;;;;;;;;5038252;28;19925;-71
2021/07/18 04:28:28;;;;;;;;;;;;;;;;;;5042832;28;20068;-74
2021/07/18 04:30:55;;;;;;;;;;;;;;;;;;5030373;28;19939;-72
2021/07/18 04:33:22;;;;;;;;;;;;;;;;;;5035642;28;19925;-72
2021/07/18 04:35:49;;;;;;;;;;;;;;;;;;5032111;28;20373;-71
2021/07/18 04:38:16;;;;;;;;;;;;;;;;;;5034971;28;20400;-73
2021/07/18 04:40:43;;;;;;;;;;;;;;;;;;5031250;28;19925;-72
2021/07/18 04:43:10;;;;;;;;;;;;;;;;;;5034834;28;19929;-72
2021/07/18 04:45:37;;;;;;;;;;;;;;;;;;5025953;28;19932;-72
2021/07/18 04:48:04;;;;;;;;;;;;;;;;;;5028878;28;20352;-72
2021/07/18 04:50:31;;;;;;;;;;;;;;;;;;5030793;28;19933;-72
2021/07/18 04:52:58;;;;;;;;;;;;;;;;;;5030122;28;19932;-72
2021/07/18 04:55:25;;;;;;;;;;;;;;;;;;5034362;28;19935;-72
2021/07/18 04:57:52;;;;;;;;;;;;;;;;;;5027635;28;19931;-72
2021/07/18 05:00:18;;;;;;;;;;;;;;;;;;5035602;28;19933;-72
2021/07/18 05:02:45;;;;;;;;;;;;;;;;;;5033555;28;19929;-72
2021/07/18 05:05:12;;;;;;;;;;;;;;;;;;5038916;28;19925;-72
2021/07/18 05:07:39;;;;;;;;;;;;;;;;;;5041803;28;19925;-72
2021/07/18 05:10:06;;;;;;;;;;;;;;;;;;5038794;28;19929;-72
2021/07/18 05:12:33;;;;;;;;;;;;;;;;;;5034064;28;20413;-72
2021/07/18 05:15:00;;;;;;;;;;;;;;;;;;5036170;28;19929;-72
2021/07/18 05:17:27;;;;;;;;;;;;;;;;;;5039066;28;20266;-72
2021/07/18 05:19:55;;;;;;;;;;;;;;;;;;5041943;28;19925;-72
2021/07/18 05:22:22;;;;;;;;;;;;;;;;;;5030012;28;19944;-72
2021/07/18 05:24:49;;;;;;;;;;;;;;;;;;5038153;28;19931;-72
2021/07/18 05:27:15;;;;;;;;;;;;;;;;;;5043435;28;19925;-72
2021/07/18 05:29:42;;;;;;;;;;;;;;;;;;5037731;28;20548;-71
2021/07/18 05:32:09;;;;;;;;;;;;;;;;;;5033503;28;19931;-72
2021/07/18 05:34:37;;;;;;;;;;;;;;;;;;5035104;28;19932;-72
2021/07/18 05:37:04;;;;;;;;;;;;;;;;;;5031464;28;19947;-72
2021/07/18 05:39:31;;;;;;;;;;;;;;;;;;5041312;28;19929;-72
2021/07/18 05:41:59;;;;;;;;;;;;;;;;;;5037214;28;20401;-72
2021/07/18 05:44:26;;;;;;;;;;;;;;;;;;5035727;28;19925;-72
2021/07/18 05:46:53;;;;;;;;;;;;;;;;;;5038555;28;20705;-72
2021/07/18 05:49:20;;;;;;;;;;;;;;;;;;5034003;28;19932;-72
2021/07/18 05:51:47;;;;;;;;;;;;;;;;;;5034404;28;19925;-72
2021/07/18 05:54:14;;;;;;;;;;;;;;;;;;5035355;28;19925;-72
2021/07/18 05:56:41;;;;;;;;;;;;;;;;;;5034288;28;20300;-72
2021/07/18 05:59:08;;;;;;;;;;;;;;;;;;5037557;28;19932;-72
2021/07/18 06:01:35;;;;;;;;;;;;;;;;;;5033224;28;19925;-72
2021/07/18 06:04:02;;;;;;;;;;;;;;;;;;5034358;28;19947;-72
2021/07/18 06:06:29;;;;;;;;;;;;;;;;;;5036128;28;19925;-72
2021/07/18 06:08:56;;;;;;;;;;;;;;;;;;5032005;28;19925;-72
2021/07/18 06:11:23;;;;;;;;;;;;;;;;;;5032104;28;19925;-72
2021/07/18 06:13:50;;;;;;;;;;;;;;;;;;5035280;28;19978;-72
2021/07/18 06:16:17;;;;;;;;;;;;;;;;;;5035035;28;19933;-72
2021/07/18 06:18:44;;;;;;;;;;;;;;;;;;5038350;28;19931;-72
2021/07/18 06:21:11;;;;;;;;;;;;;;;;;;5039724;28;19936;-72
2021/07/18 06:23:38;;;;;;;;;;;;;;;;;;5040033;28;19931;-72
2021/07/18 06:26:05;;;;;;;;;;;;;;;;;;5037386;28;19940;-72
2021/07/18 06:28:32;;;;;;;;;;;;;;;;;;5038313;28;20509;-72
2021/07/18 06:30:59;;;;;;;;;;;;;;;;;;5039868;28;19948;-72
2021/07/18 06:33:26;;;;;;;;;;;;;;;;;;5042042;28;19925;-72
2021/07/18 06:35:53;;;;;;;;;;;;;;;;;;5042986;28;19925;-72
2021/07/18 06:38:20;;;;;;;;;;;;;;;;;;5031795;28;19925;-72
2021/07/18 06:40:47;;;;;;;;;;;;;;;;;;5034383;28;19932;-72
2021/07/18 06:43:14;;;;;;;;;;;;;;;;;;5032415;28;19925;-68
2021/07/18 06:45:41;;;;;;;;;;;;;;;;;;5038882;28;19940;-68
2021/07/18 06:48:08;;;;;;;;;;;;;;;;;;5032505;28;19925;-68
2021/07/18 06:50:35;;;;;;;;;;;;;;;;;;5037561;28;19932;-68
2021/07/18 06:53:02;;;;;;;;;;;;;;;;;;5038077;28;20230;-68
2021/07/18 06:55:29;;;;;;;;;;;;;;;;;;5034695;28;19925;-68
2021/07/18 06:57:56;;;;;;;;;;;;;;;;;;5032971;28;19944;-68
2021/07/18 07:00:23;;;;;;;;;;;;;;;;;;5030996;28;19926;-68
2021/07/18 07:02:50;;;;;;;;;;;;;;;;;;5031488;28;19925;-69
2021/07/18 07:05:17;;;;;;;;;;;;;;;;;;5031243;28;20298;-67
2021/07/18 07:07:47;;;;;;;;;;;;;;;;;;5031091;28;19925;-68
2021/07/18 07:10:14;;;;;;;;;;;;;;;;;;5033229;28;20285;-67
2021/07/18 07:12:41;;;;;;;;;;;;;;;;;;5035043;28;19951;-69
2021/07/18 07:15:08;;;;;;;;;;;;;;;;;;5039133;28;19933;-67
2021/07/18 07:17:35;;;;;;;;;;;;;;;;;;5035653;28;19929;-67
2021/07/18 07:20:02;;;;;;;;;;;;;;;;;;5038432;28;19925;-67
2021/07/18 07:22:29;;;;;;;;;;;;;;;;;;5037796;28;19925;-68
2021/07/18 07:24:56;;;;;;;;;;;;;;;;;;5033011;28;20397;-67
2021/07/18 07:27:23;;;;;;;;;;;;;;;;;;5032414;28;19925;-68
2021/07/18 07:29:49;;;;;;;;;;;;;;;;;;5030735;28;19931;-68
2021/07/18 07:32:16;;;;;;;;;;;;;;;;;;5031553;28;19934;-68
2021/07/18 07:34:43;;;;;;;;;;;;;;;;;;5040297;28;20413;-68
2021/07/18 07:37:10;;;;;;;;;;;;;;;;;;5036253;28;19948;-68
2021/07/18 07:39:40;;;;;;;;;;;;;;;;;;5036103;28;19925;-68
2021/07/18 07:42:07;;;;;;;;;;;;;;;;;;5036621;28;19929;-68
2021/07/18 07:44:34;;;;;;;;;;;;;;;;;;5029763;28;19925;-68
2021/07/18 07:47:01;;;;;;;;;;;;;;;;;;5032513;28;19935;-68
2021/07/18 07:49:28;;;;;;;;;;;;;;;;;;5032652;28;20391;-68
2021/07/18 07:51:55;;;;;;;;;;;;;;;;;;5038776;28;19947;-69
2021/07/18 07:54:22;;;;;;;;;;;;;;;;;;5035971;28;20355;-69
2021/07/18 07:56:49;;;;;;;;;;;;;;;;;;5033491;28;19925;-69
2021/07/18 07:59:16;;;;;;;;;;;;;;;;;;5031990;28;20063;-68
2021/07/18 08:01:43;;;;;;;;;;;;;;;;;;5033990;28;19924;-68
2021/07/18 08:04:10;;;;;;;;;;;;;;;;;;5030839;28;19933;-68
2021/07/18 08:06:37;;;;;;;;;;;;;;;;;;5030002;28;19932;-69
2021/07/18 08:09:04;;;;;;;;;;;;;;;;;;5029276;28;19925;-69
2021/07/18 08:11:31;;;;;;;;;;;;;;;;;;5031689;28;20028;-68
2021/07/18 08:13:58;;;;;;;;;;;;;;;;;;5033765;28;19925;-68
2021/07/18 08:16:24;;;;;;;;;;;;;;;;;;5028128;28;19940;-68
2021/07/18 08:18:52;;;;;;;;;;;;;;;;;;5032736;28;19940;-68
2021/07/18 08:21:18;;;;;;;;;;;;;;;;;;5035128;28;19925;-68
2021/07/18 08:23:49;;;;;;;;;;;;;;;;;;5034174;28;19925;-68
2021/07/18 08:26:16;;;;;;;;;;;;;;;;;;5028783;28;19971;-68
2021/07/18 08:28:43;;;;;;;;;;;;;;;;;;5030671;28;19925;-67
2021/07/18 08:31:10;;;;;;;;;;;;;;;;;;5037558;28;19932;-69
2021/07/18 08:33:37;;;;;;;;;;;;;;;;;;5040269;28;19929;-68
2021/07/18 08:36:04;;;;;;;;;;;;;;;;;;5047640;28;19931;-70
2021/07/18 08:38:31;;;;;;;;;;;;;;;;;;5036199;28;19929;-68
2021/07/18 08:40:58;;;;;;;;;;;;;;;;;;5047250;28;19925;-68
2021/07/18 08:43:24;;;;;;;;;;;;;;;;;;5034159;28;19936;-68
2021/07/18 08:45:51;;;;;;;;;;;;;;;;;;5041677;28;19925;-67
2021/07/18 08:48:18;;;;;;;;;;;;;;;;;;5046007;28;19978;-68
2021/07/18 08:50:48;;;;;;;;;;;;;;;;;;5038557;28;19978;-68
2021/07/18 08:53:15;;;;;;;;;;;;;;;;;;5029014;28;19931;-68
2021/07/18 08:55:42;;;;;;;;;;;;;;;;;;5034897;28;19925;-69
2021/07/18 08:58:09;;;;;;;;;;;;;;;;;;5032491;28;19925;-69
2021/07/18 09:00:36;;;;;;;;;;;;;;;;;;5029910;28;20473;-69
2021/07/18 09:03:03;;;;;;;;;;;;;;;;;;5034657;28;20377;-69
2021/07/18 09:05:30;;;;;;;;;;;;;;;;;;5033663;28;20307;-69
2021/07/18 09:07:57;;;;;;;;;;;;;;;;;;5032134;28;20318;-69
2021/07/18 09:10:24;;;;;;;;;;;;;;;;;;5033329;28;19925;-69
2021/07/18 09:12:51;;;;;;;;;;;;;;;;;;5035686;28;19936;-69
2021/07/18 09:15:18;;;;;;;;;;;;;;;;;;5038608;28;19941;-70
2021/07/18 09:17:44;;;;;;;;;;;;;;;;;;5041522;28;20613;-72
2021/07/18 09:20:11;;;;;;;;;;;;;;;;;;5029569;28;19932;-70
2021/07/18 09:22:38;;;;;;;;;;;;;;;;;;5028541;28;19937;-71
2021/07/18 09:25:05;;;;;;;;;;;;;;;;;;5034051;28;19925;-71
2021/07/18 09:27:33;;;;;;;;;;;;;;;;;;5038103;28;19931;-73
2021/07/18 09:30:00;;;;;;;;;;;;;;;;;;5037733;28;20019;-71
2021/07/18 09:32:27;;;;;;;;;;;;;;;;;;5049231;28;19929;-74
2021/07/18 09:34:54;;;;;;;;;;;;;;;;;;5057064;28;19925;-71
2021/07/18 09:37:21;;;;;;;;;;;;;;;;;;5050225;28;19979;-70
2021/07/18 09:39:48;;;;;;;;;;;;;;;;;;5032679;28;19940;-70
2021/07/18 09:42:15;;;;;;;;;;;;;;;;;;5044106;28;19991;-72
2021/07/18 09:44:42;;;;;;;;;;;;;;;;;;5049087;28;19925;-71
2021/07/18 09:47:09;;;;;;;;;;;;;;;;;;5042875;28;20417;-71
2021/07/18 09:49:36;;;;;;;;;;;;;;;;;;5039374;28;19931;-70
2021/07/18 09:52:03;;;;;;;;;;;;;;;;;;5032462;28;19930;-71
2021/07/18 09:54:30;;;;;;;;;;;;;;;;;;5032780;28;19925;-70
2021/07/18 09:56:57;;;;;;;;;;;;;;;;;;5033681;28;19924;-70
2021/07/18 09:59:24;;;;;;;;;;;;;;;;;;5031497;28;20325;-71
2021/07/18 10:01:51;;;;;;;;;;;;;;;;;;5045982;28;20316;-69
2021/07/18 10:04:18;;;;;;;;;;;;;;;;;;5041727;28;20419;-72
2021/07/18 10:06:45;;;;;;;;;;;;;;;;;;5030352;28;19925;-70
2021/07/18 10:09:13;;;;;;;;;;;;;;;;;;5033960;28;19925;-70
2021/07/18 10:11:40;;;;;;;;;;;;;;;;;;5033732;28;20385;-71
2021/07/18 10:14:07;;;;;;;;;;;;;;;;;;5026677;28;19933;-70
2021/07/18 10:16:34;;;;;;;;;;;;;;;;;;5021232;28;19929;-69
2021/07/18 10:19:01;;;;;;;;;;;;;;;;;;5031184;28;20012;-72
2021/07/18 10:21:27;;;;;;;;;;;;;;;;;;5028311;28;20052;-70
2021/07/18 10:23:54;;;;;;;;;;;;;;;;;;5031339;28;20299;-70
2021/07/18 10:26:21;;;;;;;;;;;;;;;;;;5026697;28;20016;-69
2021/07/18 10:28:48;;;;;;;;;;;;;;;;;;5027685;28;19925;-69
2021/07/18 10:31:15;;;;;;;;;;;;;;;;;;5028164;28;19924;-70
2021/07/18 10:33:42;;;;;;;;;;;;;;;;;;5027702;28;19925;-70
2021/07/18 10:36:09;;;;;;;;;;;;;;;;;;5023375;28;19936;-70
2021/07/18 10:38:36;;;;;;;;;;;;;;;;;;5027231;28;19936;-70
2021/07/18 10:41:03;;;;;;;;;;;;;;;;;;5028129;28;19971;-72
2021/07/18 10:43:30;;;;;;;;;;;;;;;;;;5025130;28;19931;-71
2021/07/18 10:45:57;;;;;;;;;;;;;;;;;;5025374;28;20389;-70
2021/07/18 10:48:24;;;;;;;;;;;;;;;;;;5027425;28;19943;-71
2021/07/18 10:50:51;;;;;;;;;;;;;;;;;;5028468;28;19929;-69
2021/07/18 10:53:18;;;;;;;;;;;;;;;;;;5029309;28;20028;-69
2021/07/18 10:55:45;;;;;;;;;;;;;;;;;;5025094;28;19931;-70
2021/07/18 10:58:12;;;;;;;;;;;;;;;;;;5025899;28;19926;-70
2021/07/18 11:00:39;;;;;;;;;;;;;;;;;;5027005;28;19931;-71
2021/07/18 11:03:06;;;;;;;;;;;;;;;;;;5031970;28;19944;-70
2021/07/18 11:05:33;;;;;;;;;;;;;;;;;;5029518;28;19979;-70
2021/07/18 11:07:59;;;;;;;;;;;;;;;;;;5025438;28;19932;-69
2021/07/18 11:10:26;;;;;;;;;;;;;;;;;;5025422;28;19925;-69
2021/07/18 11:12:53;;;;;;;;;;;;;;;;;;5028514;28;19929;-69
2021/07/18 11:15:20;;;;;;;;;;;;;;;;;;5024216;28;19948;-70
2021/07/18 11:17:47;;;;;;;;;;;;;;;;;;5029118;28;19928;-70
2021/07/18 11:20:14;;;;;;;;;;;;;;;;;;5024436;28;19948;-71
2021/07/18 11:22:41;;;;;;;;;;;;;;;;;;5029120;28;20032;-71
2021/07/18 11:25:08;;;;;;;;;;;;;;;;;;5023043;28;19929;-69
2021/07/18 11:27:35;;;;;;;;;;;;;;;;;;5028725;28;19932;-68
2021/07/18 11:30:02;;;;;;;;;;;;;;;;;;5024004;28;19933;-69
2021/07/18 11:32:29;;;;;;;;;;;;;;;;;;5024404;28;19932;-69
2021/07/18 11:34:56;;;;;;;;;;;;;;;;;;5026394;28;19933;-70
2021/07/18 11:37:23;;;;;;;;;;;;;;;;;;5024041;28;20361;-71
2021/07/18 11:39:50;;;;;;;;;;;;;;;;;;5023985;28;20153;-70
2021/07/18 11:42:17;;;;;;;;;;;;;;;;;;5022629;28;19925;-68
2021/07/18 11:44:44;;;;;;;;;;;;;;;;;;5028008;28;20024;-69
2021/07/18 11:47:11;;;;;;;;;;;;;;;;;;5025711;28;19926;-70
2021/07/18 11:49:38;;;;;;;;;;;;;;;;;;5026362;28;19925;-69
2021/07/18 11:52:05;;;;;;;;;;;;;;;;;;5025126;28;19932;-69
2021/07/18 11:54:31;;;;;;;;;;;;;;;;;;5025823;28;19936;-68
2021/07/18 11:56:58;;;;;;;;;;;;;;;;;;5020097;28;19925;-68
2021/07/18 11:59:25;;;;;;;;;;;;;;;;;;5020635;28;19932;-68
2021/07/18 12:01:52;;;;;;;;;;;;;;;;;;5026573;28;20297;-69
2021/07/18 12:04:25;;;;;;;;;;;;;;;;;;5022237;28;19931;-69
2021/07/18 12:06:52;;;;;;;;;;;;;;;;;;5024324;28;19929;-70
2021/07/18 12:09:19;;;;;;;;;;;;;;;;;;5019888;28;19933;-70
2021/07/18 12:11:48;;;;;;;;;;;;;;;;;;5025264;28;19926;-71
2021/07/18 12:14:15;;;;;;;;;;;;;;;;;;5021698;28;19979;-70
2021/07/18 12:16:44;;;;;;;;;;;;;;;;;;5022675;28;19952;-71
2021/07/18 12:19:11;;;;;;;;;;;;;;;;;;5028860;28;19925;-71
2021/07/18 12:21:38;;;;;;;;;;;;;;;;;;5029249;28;19925;-71
2021/07/18 12:24:05;;;;;;;;;;;;;;;;;;5026610;28;19972;-72
2021/07/18 12:26:32;;;;;;;;;;;;;;;;;;5029030;28;20282;-72
2021/07/18 12:28:59;;;;;;;;;;;;;;;;;;5028191;28;20380;-72
2021/07/18 12:31:26;;;;;;;;;;;;;;;;;;5028496;28;19926;-72
2021/07/18 12:33:53;;;;;;;;;;;;;;;;;;5012668;28;19988;-72
2021/07/18 12:36:19;;;;;;;;;;;;;;;;;;5023625;28;19936;-72
2021/07/18 12:38:46;;;;;;;;;;;;;;;;;;5031498;28;19933;-73
2021/07/18 12:41:13;;;;;;;;;;;;;;;;;;5031196;28;19933;-72
2021/07/18 12:43:40;;;;;;;;;;;;;;;;;;5035793;28;20029;-72
2021/07/18 12:46:07;;;;;;;;;;;;;;;;;;5033147;28;19925;-72
2021/07/18 12:48:34;;;;;;;;;;;;;;;;;;5033782;28;19987;-72
2021/07/18 12:51:01;;;;;;;;;;;;;;;;;;5026924;28;20566;-71
2021/07/18 12:53:28;;;;;;;;;;;;;;;;;;5025098;28;19936;-73
2021/07/18 12:55:57;;;;;;;;;;;;;;;;;;5027179;28;19925;-72
2021/07/18 12:58:24;;;;;;;;;;;;;;;;;;5028053;28;19979;-72
2021/07/18 13:00:51;;;;;;;;;;;;;;;;;;5029238;28;19948;-72
2021/07/18 13:03:18;;;;;;;;;;;;;;;;;;5030902;28;19925;-72
2021/07/18 13:05:45;;;;;;;;;;;;;;;;;;5037690;28;19926;-73
2021/07/18 13:08:11;;;;;;;;;;;;;;;;;;5033470;28;20379;-72
2021/07/18 13:10:38;;;;;;;;;;;;;;;;;;5030486;28;19932;-73
2021/07/18 13:13:05;;;;;;;;;;;;;;;;;;5034168;28;19960;-71
2021/07/18 13:15:32;;;;;;;;;;;;;;;;;;5035201;28;19929;-71
2021/07/18 13:17:59;;;;;;;;;;;;;;;;;;5029137;28;19940;-73
2021/07/18 13:20:26;;;;;;;;;;;;;;;;;;5029733;28;19925;-71
2021/07/18 13:22:53;;;;;;;;;;;;;;;;;;5033773;28;19936;-72
2021/07/18 13:25:20;;;;;;;;;;;;;;;;;;5031341;28;19991;-71
2021/07/18 13:27:47;;;;;;;;;;;;;;;;;;5031327;28;19925;-73
2021/07/18 13:30:14;;;;;;;;;;;;;;;;;;5031274;28;19932;-71
2021/07/18 13:32:41;;;;;;;;;;;;;;;;;;5029554;28;19933;-73
2021/07/18 13:35:08;;;;;;;;;;;;;;;;;;5025953;28;20407;-72
2021/07/18 13:37:35;;;;;;;;;;;;;;;;;;5025413;28;19933;-72
2021/07/18 13:40:02;;;;;;;;;;;;;;;;;;5026629;28;20277;-72
2021/07/18 13:42:29;;;;;;;;;;;;;;;;;;5034779;28;19925;-72
2021/07/18 13:44:56;;;;;;;;;;;;;;;;;;5029276;28;19925;-72
2021/07/18 13:47:22;;;;;;;;;;;;;;;;;;5026720;28;19963;-72
2021/07/18 13:49:49;;;;;;;;;;;;;;;;;;5028427;28;19924;-73
2021/07/18 13:52:16;;;;;;;;;;;;;;;;;;5029568;28;19925;-73
2021/07/18 13:54:43;;;;;;;;;;;;;;;;;;5031332;28;19929;-73
2021/07/18 13:57:10;;;;;;;;;;;;;;;;;;5027166;28;19935;-73
2021/07/18 13:59:37;;;;;;;;;;;;;;;;;;5032527;28;19933;-70
2021/07/18 14:02:04;;;;;;;;;;;;;;;;;;5029865;28;20365;-72
2021/07/18 14:04:31;;;;;;;;;;;;;;;;;;5030425;28;19925;-72
2021/07/18 14:06:58;;;;;;;;;;;;;;;;;;5033045;28;19925;-73
2021/07/18 14:09:25;;;;;;;;;;;;;;;;;;5031259;28;19933;-73
2021/07/18 14:11:52;;;;;;;;;;;;;;;;;;5032628;28;19933;-73
2021/07/18 14:14:19;;;;;;;;;;;;;;;;;;5030651;28;20055;-72
2021/07/18 14:16:46;;;;;;;;;;;;;;;;;;5028722;28;19940;-71
2021/07/18 14:19:13;;;;;;;;;;;;;;;;;;5028636;28;20023;-70
2021/07/18 14:21:39;;;;;;;;;;;;;;;;;;5029051;28;19925;-68
2021/07/18 14:24:06;;;;;;;;;;;;;;;;;;5035579;28;19925;-70
2021/07/18 14:26:33;;;;;;;;;;;;;;;;;;5030911;28;19939;-68
2021/07/18 14:29:00;;;;;;;;;;;;;;;;;;5032274;28;19964;-69
2021/07/18 14:31:27;;;;;;;;;;;;;;;;;;5033771;28;20300;-69
2021/07/18 14:33:54;;;;;;;;;;;;;;;;;;5029045;28;19933;-70
2021/07/18 14:36:22;;;;;;;;;;;;;;;;;;5030729;28;19925;-67
2021/07/18 14:38:49;;;;;;;;;;;;;;;;;;5038416;28;19931;-68
2021/07/18 14:41:16;;;;;;;;;;;;;;;;;;5038746;28;19935;-69
2021/07/18 14:43:43;;;;;;;;;;;;;;;;;;5032350;28;19929;-68
2021/07/18 14:46:10;;;;;;;;;;;;;;;;;;5029581;28;19932;-67
2021/07/18 14:48:37;;;;;;;;;;;;;;;;;;5026176;28;19940;-68
2021/07/18 14:51:04;;;;;;;;;;;;;;;;;;5027821;28;20203;-66
2021/07/18 14:53:31;;;;;;;;;;;;;;;;;;5029366;28;19932;-67
2021/07/18 14:55:58;;;;;;;;;;;;;;;;;;5029385;28;20312;-66
2021/07/18 14:58:25;;;;;;;;;;;;;;;;;;5026941;28;20373;-67
2021/07/18 15:00:52;;;;;;;;;;;;;;;;;;5026835;28;20008;-68
2021/07/18 15:03:19;;;;;;;;;;;;;;;;;;5024366;28;20481;-68
2021/07/18 15:05:46;;;;;;;;;;;;;;;;;;5029942;28;19926;-69
2021/07/18 15:08:12;;;;;;;;;;;;;;;;;;5027827;28;19937;-68
2021/07/18 15:10:39;;;;;;;;;;;;;;;;;;5030689;28;19933;-69
2021/07/18 15:13:06;;;;;;;;;;;;;;;;;;5026091;28;19933;-68
2021/07/18 15:15:33;;;;;;;;;;;;;;;;;;5027585;28;19968;-71
2021/07/18 15:18:00;;;;;;;;;;;;;;;;;;5022741;28;19933;-69
2021/07/18 15:20:27;;;;;;;;;;;;;;;;;;5032549;28;19929;-68
2021/07/18 15:22:56;;;;;;;;;;;;;;;;;;5031634;28;20027;-68
2021/07/18 15:25:23;;;;;;;;;;;;;;;;;;5024843;28;20025;-67
2021/07/18 15:27:50;;;;;;;;;;;;;;;;;;5028644;28;19925;-69
2021/07/18 15:30:17;;;;;;;;;;;;;;;;;;5026984;28;19948;-68
2021/07/18 15:32:44;;;;;;;;;;;;;;;;;;5026575;28;19929;-68
2021/07/18 15:35:11;;;;;;;;;;;;;;;;;;5024464;28;19925;-68
2021/07/18 15:37:38;;;;;;;;;;;;;;;;;;5028753;28;20008;-68
2021/07/18 15:40:05;;;;;;;;;;;;;;;;;;5025216;28;19925;-69
2021/07/18 15:42:32;;;;;;;;;;;;;;;;;;5023071;28;20019;-69
2021/07/18 15:44:59;;;;;;;;;;;;;;;;;;5026368;28;19932;-68
2021/07/18 15:47:25;;;;;;;;;;;;;;;;;;5023302;28;19929;-70
2021/07/18 15:49:52;;;;;;;;;;;;;;;;;;5026062;28;19931;-69
2021/07/18 15:52:19;;;;;;;;;;;;;;;;;;5027399;28;20281;-69
2021/07/18 15:54:46;;;;;;;;;;;;;;;;;;5025664;28;19933;-69
2021/07/18 15:57:13;;;;;;;;;;;;;;;;;;5021548;28;19929;-69
2021/07/18 15:59:40;;;;;;;;;;;;;;;;;;5027019;28;20541;-69
2021/07/18 16:02:07;;;;;;;;;;;;;;;;;;5026878;28;19925;-69
2021/07/18 16:04:34;;;;;;;;;;;;;;;;;;5022207;28;19929;-69
2021/07/18 16:07:01;;;;;;;;;;;;;;;;;;5022186;28;19925;-68
2021/07/18 16:09:30;;;;;;;;;;;;;;;;;;5025458;28;19925;-69
2021/07/18 16:11:57;;;;;;;;;;;;;;;;;;5024677;28;20020;-69
2021/07/18 16:14:24;;;;;;;;;;;;;;;;;;5029252;28;20279;-69
2021/07/18 16:16:51;;;;;;;;;;;;;;;;;;5027754;28;19991;-69
2021/07/18 16:19:18;;;;;;;;;;;;;;;;;;5029059;28;19972;-69
2021/07/18 16:21:45;;;;;;;;;;;;;;;;;;5031836;28;19925;-69
2021/07/18 16:24:12;;;;;;;;;;;;;;;;;;5028414;28;19925;-69
2021/07/18 16:26:39;;;;;;;;;;;;;;;;;;5025634;28;20308;-69
2021/07/18 16:29:06;;;;;;;;;;;;;;;;;;5025966;28;19948;-69
2021/07/18 16:31:33;;;;;;;;;;;;;;;;;;5030502;28;19933;-69
2021/07/18 16:34:00;;;;;;;;;;;;;;;;;;5028605;28;19951;-68
2021/07/18 16:36:27;;;;;;;;;;;;;;;;;;5026937;28;19931;-67
2021/07/18 16:38:55;;;;;;;;;;;;;;;;;;5024107;28;19936;-70
2021/07/18 16:41:22;;;;;;;;;;;;;;;;;;5027158;28;20008;-70
2021/07/18 16:43:49;;;;;;;;;;;;;;;;;;5023393;28;19925;-69